Time;durP1;ratioP1;P1;durP2;ratioP2;P2;SDS_P1;SDS_P2;PMS_P1;PMS_P2;Temp;Humidity;BMP_temperature;BMP_pressure;BME280_temperature;BME280_humidity;BME280_pressure;Samples;Min_cycle;Max_cycle;Signal;HPM_P1;HPM_P2
2021/04/23 00:00:24;;;;;;;6.70;2.83;;;10.70;50.30;;;;;;5096651;28;20501;-66
2021/04/23 00:02:51;;;;;;;4.43;3.27;;;10.60;51.00;;;;;;5096682;28;20485;-66
2021/04/23 00:05:17;;;;;;;8.57;3.40;;;10.50;50.90;;;;;;5096303;28;20474;-66
2021/04/23 00:07:44;;;;;;;5.80;3.43;;;10.50;51.00;;;;;;5096130;28;20466;-66
2021/04/23 00:10:13;;;;;;;5.40;3.50;;;10.40;51.00;;;;;;5096490;28;20443;-66
2021/04/23 00:12:39;;;;;;;5.53;3.30;;;10.30;51.20;;;;;;5096117;28;20809;-66
2021/04/23 00:15:08;;;;;;;4.20;3.43;;;10.20;51.30;;;;;;5096287;28;20455;-66
2021/04/23 00:17:35;;;;;;;5.43;3.67;;;10.20;51.40;;;;;;5096238;28;20472;-66
2021/04/23 00:20:05;;;;;;;4.50;3.10;;;10.20;51.50;;;;;;5096312;28;20448;-66
2021/04/23 00:22:31;;;;;;;4.93;3.77;;;10.10;51.50;;;;;;5096481;28;20451;-66
2021/04/23 00:24:57;;;;;;;4.40;3.17;;;10.10;51.70;;;;;;5096125;28;20502;-66
2021/04/23 00:27:23;;;;;;;7.43;3.80;;;10.00;51.60;;;;;;5095988;28;20905;-66
2021/04/23 00:29:50;;;;;;;4.00;2.80;;;10.00;51.80;;;;;;5096067;28;20443;-66
2021/04/23 00:35:01;;;;;;;8.17;3.40;;;9.90;53.00;;;;;;5095916;28;20431;-66
2021/04/23 00:37:27;;;;;;;5.57;3.33;;;9.80;53.10;;;;;;5095938;28;20460;-66
2021/04/23 00:39:53;;;;;;;6.90;3.73;;;9.80;53.30;;;;;;5095643;28;20451;-66
2021/04/23 00:42:20;;;;;;;3.93;3.10;;;9.70;53.40;;;;;;5095822;28;20439;-66
2021/04/23 00:44:46;;;;;;;5.00;3.00;;;9.70;53.50;;;;;;5095724;28;20472;-66
2021/04/23 00:47:12;;;;;;;8.23;3.50;;;9.70;53.60;;;;;;5095715;28;20513;-66
2021/04/23 00:49:38;;;;;;;7.07;3.73;;;9.70;53.90;;;;;;5095808;28;20451;-66
2021/04/23 00:52:06;;;;;;;4.90;3.53;;;9.70;54.40;;;;;;5095854;28;20440;-66
2021/04/23 00:54:32;;;;;;;8.17;4.50;;;9.60;54.50;;;;;;5095637;28;20442;-66
2021/04/23 00:56:59;;;;;;;7.67;3.93;;;9.60;54.70;;;;;;5095483;28;20476;-66
2021/04/23 00:59:26;;;;;;;10.87;4.30;;;9.60;54.60;;;;;;5095467;28;20439;-66
2021/04/23 01:01:55;;;;;;;9.37;4.53;;;9.60;54.70;;;;;;5095182;28;20781;-66
2021/04/23 01:04:22;;;;;;;4.67;3.73;;;9.50;54.70;;;;;;5094878;28;20842;-66
2021/04/23 01:06:49;;;;;;;10.60;4.10;;;9.50;54.70;;;;;;5095019;28;20527;-66
2021/04/23 01:09:19;;;;;;;5.33;3.83;;;9.50;54.60;;;;;;5095374;28;20420;-66
2021/04/23 01:11:47;;;;;;;5.60;4.63;;;9.50;54.60;;;;;;5095182;28;20448;-66
2021/04/23 01:14:14;;;;;;;16.03;5.50;;;9.50;54.60;;;;;;5094959;28;20882;-66
2021/04/23 01:16:41;;;;;;;8.47;5.23;;;9.50;54.90;;;;;;5095066;28;20443;-66
2021/04/23 01:19:10;;;;;;;7.00;4.20;;;9.40;54.90;;;;;;5095171;28;20497;-66
2021/04/23 01:21:38;;;;;;;9.23;4.70;;;9.40;54.90;;;;;;5095043;28;20449;-66
2021/04/23 01:24:07;;;;;;;4.67;3.93;;;9.40;54.70;;;;;;5095740;28;20450;-66
2021/04/23 01:26:37;;;;;;;5.80;4.00;;;9.30;54.70;;;;;;5094981;28;20448;-66
2021/04/23 01:29:06;;;;;;;5.37;3.70;;;9.30;54.80;;;;;;5094964;28;20785;-66
2021/04/23 01:31:37;;;;;;;6.53;3.40;;;9.30;54.80;;;;;;5094593;28;20948;-66
2021/04/23 01:34:07;;;;;;;7.87;4.33;;;9.30;54.80;;;;;;5094789;28;20467;-66
2021/04/23 01:36:33;;;;;;;7.50;4.03;;;9.20;54.80;;;;;;5094401;28;21000;-66
2021/04/23 01:39:00;;;;;;;5.60;4.53;;;9.20;54.90;;;;;;5094966;28;20466;-65
2021/04/23 01:41:27;;;;;;;5.23;4.70;;;9.10;54.90;;;;;;5095382;28;20470;-65
2021/04/23 01:43:54;;;;;;;7.70;4.33;;;9.10;55.00;;;;;;5095008;28;20444;-65
2021/04/23 01:46:20;;;;;;;9.40;4.70;;;9.10;55.20;;;;;;5094299;28;20515;-65
2021/04/23 01:48:46;;;;;;;7.93;4.30;;;9.10;55.40;;;;;;5094284;28;20989;-66
2021/04/23 01:51:15;;;;;;;7.03;4.80;;;9.00;55.90;;;;;;5094448;28;20458;-66
2021/04/23 01:53:43;;;;;;;9.97;4.40;;;9.00;56.10;;;;;;5094406;28;20440;-65
2021/04/23 01:56:11;;;;;;;4.80;3.60;;;9.00;56.00;;;;;;5094337;28;20455;-65
2021/04/23 01:58:38;;;;;;;7.10;4.53;;;8.90;56.00;;;;;;5094268;28;20459;-65
2021/04/23 02:01:07;;;;;;;8.80;4.43;;;8.90;55.90;;;;;;5095441;28;20779;-65
2021/04/23 02:03:35;;;;;;;5.73;4.37;;;8.90;56.20;;;;;;5094261;28;20497;-65
2021/04/23 02:06:01;;;;;;;11.97;4.60;;;8.90;56.40;;;;;;5093843;28;20471;-65
2021/04/23 02:08:28;;;;;;;7.57;4.40;;;8.80;56.50;;;;;;5093878;28;20462;-65
2021/04/23 02:10:59;;;;;;;7.90;5.57;;;8.80;56.90;;;;;;5094127;28;20444;-65
2021/04/23 02:13:28;;;;;;;8.73;5.40;;;8.80;57.00;;;;;;5094394;28;20428;-65
2021/04/23 02:15:54;;;;;;;7.90;5.60;;;8.80;57.20;;;;;;5093476;28;20436;-65
2021/04/23 02:18:22;;;;;;;8.83;5.50;;;8.70;57.10;;;;;;5093110;28;21045;-66
2021/04/23 02:20:49;;;;;;;12.13;5.10;;;8.70;57.00;;;;;;5094002;28;20435;-65
2021/04/23 02:23:19;;;;;;;9.63;5.20;;;8.70;57.10;;;;;;5093921;28;20486;-66
2021/04/23 02:25:46;;;;;;;8.30;5.23;;;8.70;57.20;;;;;;5093848;28;20472;-66
2021/04/23 02:28:12;;;;;;;8.53;5.20;;;8.70;57.20;;;;;;5093861;28;20525;-65
2021/04/23 02:30:43;;;;;;;10.00;5.53;;;8.60;57.30;;;;;;5093559;28;20450;-65
2021/04/23 02:33:12;;;;;;;10.83;5.70;;;8.60;57.40;;;;;;5093883;28;20430;-66
2021/04/23 02:35:39;;;;;;;10.30;5.50;;;8.60;57.50;;;;;;5093806;28;20436;-65
2021/04/23 02:38:05;;;;;;;8.50;5.60;;;8.50;57.50;;;;;;5093905;28;20467;-65
2021/04/23 02:40:32;;;;;;;8.93;5.00;;;8.50;57.60;;;;;;5093744;28;20474;-65
2021/04/23 02:43:00;;;;;;;8.67;5.30;;;8.50;57.60;;;;;;5093470;28;20956;-66
2021/04/23 02:45:30;;;;;;;9.27;5.80;;;8.40;57.70;;;;;;5093596;28;20483;-66
2021/04/23 02:47:57;;;;;;;9.63;5.63;;;8.40;57.70;;;;;;5093383;28;20808;-66
2021/04/23 02:50:26;;;;;;;6.93;4.93;;;8.40;57.90;;;;;;5093692;28;20458;-65
2021/04/23 02:52:53;;;;;;;9.20;5.43;;;8.40;57.90;;;;;;5093619;28;20450;-65
2021/04/23 02:55:19;;;;;;;11.70;6.13;;;8.30;57.90;;;;;;5093436;28;20444;-65
2021/04/23 02:57:55;;;;;;;8.30;5.07;;;8.30;57.80;;;;;;5093463;28;20471;-65
2021/04/23 03:00:23;;;;;;;11.10;6.33;;;8.30;57.80;;;;;;5093705;28;20423;-66
2021/04/23 03:02:49;;;;;;;6.47;4.93;;;8.30;57.90;;;;;;5093906;28;20466;-66
2021/04/23 03:05:18;;;;;;;9.97;6.03;;;8.20;58.00;;;;;;5093158;28;20479;-66
2021/04/23 03:07:44;;;;;;;9.90;5.67;;;8.20;58.00;;;;;;5093428;28;20467;-65
2021/04/23 03:10:12;;;;;;;10.57;6.33;;;8.20;58.20;;;;;;5093135;28;20898;-66
2021/04/23 03:12:38;;;;;;;9.03;5.83;;;8.20;58.20;;;;;;5093185;28;20448;-66
2021/04/23 03:15:07;;;;;;;8.03;5.00;;;8.10;58.10;;;;;;5093365;28;20452;-65
2021/04/23 03:17:33;;;;;;;12.00;6.30;;;8.10;58.00;;;;;;5093025;28;20514;-66
2021/04/23 03:20:00;;;;;;;13.43;6.20;;;8.10;58.10;;;;;;5093378;28;20451;-66
2021/04/23 03:22:27;;;;;;;14.80;5.87;;;8.10;58.30;;;;;;5093408;28;20496;-66
2021/04/23 03:24:53;;;;;;;9.37;6.20;;;8.10;58.30;;;;;;5093258;28;20472;-66
2021/04/23 03:27:20;;;;;;;8.77;5.90;;;8.00;58.20;;;;;;5093355;28;20475;-66
2021/04/23 03:29:46;;;;;;;10.10;6.47;;;8.00;58.20;;;;;;5097224;28;20447;-66
2021/04/23 03:32:12;;;;;;;8.43;5.27;;;8.00;58.30;;;;;;5097149;28;20443;-66
2021/04/23 03:34:39;;;;;;;7.77;5.70;;;8.00;58.30;;;;;;5097147;28;20443;-66
2021/04/23 03:37:05;;;;;;;10.90;5.90;;;7.90;58.30;;;;;;5097079;28;20537;-65
2021/04/23 03:39:32;;;;;;;8.43;5.60;;;7.90;58.70;;;;;;5097064;28;20497;-65
2021/04/23 03:41:59;;;;;;;7.03;5.90;;;7.90;58.20;;;;;;5097027;28;20448;-65
2021/04/23 03:44:25;;;;;;;7.20;6.03;;;7.90;58.20;;;;;;5096620;28;20944;-65
2021/04/23 03:46:53;;;;;;;10.17;6.53;;;7.80;58.20;;;;;;5096899;28;20443;-65
2021/04/23 03:49:19;;;;;;;12.53;5.47;;;7.80;58.30;;;;;;5096918;28;20463;-65
2021/04/23 03:51:46;;;;;;;8.53;5.73;;;7.80;58.40;;;;;;5096867;28;20444;-65
2021/04/23 03:54:12;;;;;;;10.03;6.60;;;7.70;58.50;;;;;;5096754;28;20428;-66
2021/04/23 03:56:39;;;;;;;15.23;6.50;;;7.70;58.50;;;;;;5096473;28;20946;-66
2021/04/23 03:59:06;;;;;;;9.23;5.90;;;7.70;58.60;;;;;;5096787;28;20859;-65
2021/04/23 04:01:34;;;;;;;7.57;5.90;;;7.70;58.50;;;;;;5096626;28;20444;-65
2021/04/23 04:04:01;;;;;;;7.30;5.00;;;7.60;58.50;;;;;;5096676;28;20440;-65
2021/04/23 04:06:27;;;;;;;10.30;5.87;;;7.60;58.70;;;;;;5096464;28;20479;-65
2021/04/23 04:08:54;;;;;;;11.50;6.50;;;7.60;58.80;;;;;;5096039;28;20506;-65
2021/04/23 04:11:20;;;;;;;8.80;5.60;;;7.60;58.90;;;;;;5096004;28;20952;-65
2021/04/23 04:13:47;;;;;;;9.77;6.00;;;7.60;58.90;;;;;;5095997;28;20451;-65
2021/04/23 04:16:14;;;;;;;10.00;6.20;;;7.50;58.80;;;;;;5095924;28;20863;-65
2021/04/23 04:18:40;;;;;;;9.37;5.90;;;7.50;58.80;;;;;;5096216;28;20464;-65
2021/04/23 04:21:06;;;;;;;10.33;5.70;;;7.50;58.80;;;;;;5096246;28;20448;-65
2021/04/23 04:23:33;;;;;;;8.30;5.70;;;7.50;58.60;;;;;;5095779;28;20439;-65
2021/04/23 04:26:01;;;;;;;8.70;5.70;;;7.40;58.40;;;;;;5095693;28;20974;-65
2021/04/23 04:28:29;;;;;;;8.10;5.40;;;7.40;58.50;;;;;;5096012;28;20459;-65
2021/04/23 04:30:57;;;;;;;8.80;5.90;;;7.30;58.60;;;;;;5095732;28;20945;-65
2021/04/23 04:33:23;;;;;;;8.43;5.63;;;7.30;58.60;;;;;;5096612;28;20440;-65
2021/04/23 04:35:50;;;;;;;7.63;5.67;;;7.20;58.70;;;;;;5096769;28;20442;-65
2021/04/23 04:38:17;;;;;;;9.80;6.13;;;7.20;58.80;;;;;;5096478;28;20464;-65
2021/04/23 04:40:47;;;;;;;8.30;5.97;;;7.10;58.90;;;;;;5095127;28;20946;-66
2021/04/23 04:43:16;;;;;;;8.57;5.60;;;7.10;59.00;;;;;;5095846;28;20929;-65
2021/04/23 04:45:43;;;;;;;9.40;5.50;;;7.10;59.10;;;;;;5095406;28;20471;-65
2021/04/23 04:48:11;;;;;;;7.07;5.50;;;7.10;59.10;;;;;;5095421;28;20463;-65
2021/04/23 04:50:41;;;;;;;7.93;6.07;;;7.00;59.10;;;;;;5095766;28;20450;-65
2021/04/23 04:53:08;;;;;;;11.53;6.30;;;7.00;59.40;;;;;;5095619;28;20439;-65
2021/04/23 04:55:37;;;;;;;8.00;6.13;;;7.00;59.50;;;;;;5095516;28;20459;-65
2021/04/23 04:58:07;;;;;;;7.93;5.20;;;7.00;59.60;;;;;;5095458;28;20463;-66
2021/04/23 05:00:34;;;;;;;8.20;5.50;;;7.00;59.60;;;;;;5095228;28;20447;-65
2021/04/23 05:03:01;;;;;;;12.07;5.83;;;7.00;59.70;;;;;;5096100;28;20981;-65
2021/04/23 05:05:29;;;;;;;7.33;4.90;;;6.90;59.70;;;;;;5095326;28;20502;-65
2021/04/23 05:07:55;;;;;;;9.03;5.77;;;6.90;60.00;;;;;;5095348;28;20470;-65
2021/04/23 05:10:22;;;;;;;9.37;6.40;;;6.90;60.20;;;;;;5095284;28;20472;-65
2021/04/23 05:12:48;;;;;;;12.20;5.83;;;6.90;60.60;;;;;;5095248;28;20440;-65
2021/04/23 05:15:17;;;;;;;9.53;6.33;;;6.90;61.10;;;;;;5095220;28;20446;-65
2021/04/23 05:17:43;;;;;;;10.17;6.83;;;6.80;61.10;;;;;;5095108;28;20463;-65
2021/04/23 05:20:11;;;;;;;12.03;5.33;;;6.90;61.60;;;;;;5095025;28;20444;-65
2021/04/23 05:22:38;;;;;;;11.10;5.40;;;6.80;61.70;;;;;;5095153;28;20477;-65
2021/04/23 05:25:06;;;;;;;7.93;5.40;;;6.80;62.10;;;;;;5095131;28;20468;-65
2021/04/23 05:27:33;;;;;;;9.87;6.00;;;6.80;62.40;;;;;;5095172;28;20463;-65
2021/04/23 05:29:59;;;;;;;8.93;5.90;;;6.90;62.80;;;;;;5095167;28;20431;-65
2021/04/23 05:32:26;;;;;;;10.27;6.40;;;6.90;62.80;;;;;;5094678;28;20539;-65
2021/04/23 05:34:53;;;;;;;11.13;6.30;;;6.90;63.20;;;;;;5095077;28;20459;-65
2021/04/23 05:37:21;;;;;;;11.70;6.80;;;6.90;63.80;;;;;;5094788;28;20468;-65
2021/04/23 05:39:48;;;;;;;9.20;6.97;;;6.90;64.20;;;;;;5094841;28;20483;-65
2021/04/23 05:42:15;;;;;;;11.10;6.37;;;7.00;64.90;;;;;;5094826;28;20443;-65
2021/04/23 05:44:42;;;;;;;12.47;7.37;;;7.00;65.00;;;;;;5094678;28;20439;-65
2021/04/23 05:47:09;;;;;;;8.43;6.63;;;7.10;65.10;;;;;;5094561;28;20516;-65
2021/04/23 05:49:36;;;;;;;13.13;8.00;;;7.10;65.40;;;;;;5094624;28;20450;-65
2021/04/23 05:52:05;;;;;;;10.47;6.63;;;7.20;65.60;;;;;;5094547;28;20945;-65
2021/04/23 05:54:32;;;;;;;13.80;7.40;;;7.20;65.80;;;;;;5094850;28;20466;-65
2021/04/23 05:56:59;;;;;;;9.67;6.83;;;7.30;66.10;;;;;;5094035;28;20456;-65
2021/04/23 05:59:25;;;;;;;11.47;6.97;;;7.30;66.20;;;;;;5094421;28;20446;-65
2021/04/23 06:01:51;;;;;;;9.33;7.50;;;7.40;66.50;;;;;;5094857;28;20432;-65
2021/04/23 06:04:17;;;;;;;12.77;8.37;;;7.50;66.80;;;;;;5094039;28;20960;-66
2021/04/23 06:06:44;;;;;;;15.63;9.03;;;7.50;66.70;;;;;;5094296;28;20468;-66
2021/04/23 06:09:10;;;;;;;14.67;8.00;;;7.50;67.10;;;;;;5094364;28;20444;-66
2021/04/23 06:11:36;;;;;;;13.10;8.47;;;7.60;67.70;;;;;;5094122;28;20439;-66
2021/04/23 06:14:04;;;;;;;16.70;9.00;;;7.70;67.90;;;;;;5094114;28;20490;-66
2021/04/23 06:16:30;;;;;;;13.00;8.27;;;7.70;67.80;;;;;;5094120;28;20447;-66
2021/04/23 06:18:57;;;;;;;14.40;9.77;;;7.70;68.20;;;;;;5093647;28;20491;-66
2021/04/23 06:21:24;;;;;;;15.10;9.43;;;7.70;68.40;;;;;;5094068;28;20817;-66
2021/04/23 06:23:56;;;;;;;12.70;8.63;;;7.80;69.10;;;;;;5094008;28;20431;-66
2021/04/23 06:51:09;;;;;;;;;;;;;;;;;;;;;
2021/04/23 06:59:45;;;;;;;19.83;9.03;;;8.90;67.80;;;;;;5091085;28;20992;-65
2021/04/23 07:02:11;;;;;;;24.90;9.77;;;8.90;67.50;;;;;;5093644;28;20438;-65
2021/04/23 07:04:37;;;;;;;24.10;11.93;;;9.10;67.70;;;;;;5096995;28;20447;-65
2021/04/23 07:07:03;;;;;;;17.23;10.00;;;9.20;67.00;;;;;;5097408;28;20459;-65
2021/04/23 07:09:30;;;;;;;25.53;10.77;;;9.20;67.00;;;;;;5097703;28;20432;-66
2021/04/23 07:11:57;;;;;;;23.47;10.70;;;9.40;66.80;;;;;;5097633;28;20436;-65
2021/04/23 07:14:23;;;;;;;14.30;8.93;;;9.50;66.10;;;;;;5097704;28;20439;-66
2021/04/23 07:16:50;;;;;;;16.90;9.70;;;9.70;66.10;;;;;;5097437;28;20431;-66
2021/04/23 07:19:16;;;;;;;32.60;8.90;;;9.90;65.40;;;;;;5097409;28;20506;-66
2021/04/23 07:21:42;;;;;;;15.90;7.90;;;10.10;63.30;;;;;;5097449;28;20493;-65
2021/04/23 07:24:09;;;;;;;16.70;7.77;;;10.30;61.60;;;;;;5097439;28;20424;-66
2021/04/23 07:26:36;;;;;;;15.70;7.73;;;10.50;60.00;;;;;;5097273;28;20459;-66
2021/04/23 07:29:03;;;;;;;19.20;6.90;;;10.70;58.90;;;;;;5098231;28;21022;-65
2021/04/23 07:31:29;;;;;;;19.33;7.87;;;10.90;58.60;;;;;;5098558;28;20924;-65
2021/04/23 07:33:57;;;;;;;10.10;7.00;;;11.10;58.00;;;;;;5097904;28;20477;-65
2021/04/23 07:36:23;;;;;;;17.87;6.27;;;11.20;57.80;;;;;;5097392;28;20446;-66
2021/04/23 07:38:50;;;;;;;14.13;6.83;;;11.30;56.10;;;;;;5097239;28;20472;-66
2021/04/23 07:41:16;;;;;;;9.13;6.03;;;11.40;55.40;;;;;;5097116;28;20451;-66
2021/04/23 07:43:43;;;;;;;10.47;6.47;;;11.50;55.20;;;;;;5097210;28;20432;-65
2021/04/23 07:46:09;;;;;;;12.53;6.10;;;11.70;55.00;;;;;;5096932;28;20479;-66
2021/04/23 07:48:36;;;;;;;9.57;5.87;;;11.90;55.30;;;;;;5096577;28;20463;-66
2021/04/23 07:51:02;;;;;;;15.13;6.90;;;12.10;54.90;;;;;;5096979;28;20427;-65
2021/04/23 07:53:29;;;;;;;9.67;6.50;;;12.20;54.60;;;;;;5097005;28;20443;-66
2021/04/23 07:55:55;;;;;;;14.50;6.73;;;12.50;54.00;;;;;;5096935;28;20490;-66
2021/04/23 07:58:21;;;;;;;11.40;6.60;;;12.70;53.10;;;;;;5097578;28;20463;-66
2021/04/23 08:00:48;;;;;;;17.30;6.77;;;13.00;52.10;;;;;;5097352;28;20424;-66
2021/04/23 08:03:15;;;;;;;13.73;7.70;;;13.30;50.90;;;;;;5096703;28;20458;-66
2021/04/23 08:05:41;;;;;;;11.07;6.30;;;13.50;49.40;;;;;;5096660;28;20470;-66
2021/04/23 08:08:08;;;;;;;13.03;6.57;;;13.70;49.50;;;;;;5096756;28;20464;-66
2021/04/23 08:10:35;;;;;;;10.30;6.97;;;13.70;48.40;;;;;;5096627;28;20448;-66
2021/04/23 08:13:02;;;;;;;9.37;5.20;;;13.80;48.50;;;;;;5096417;28;20514;-66
2021/04/23 08:15:28;;;;;;;7.37;6.50;;;13.80;48.10;;;;;;5095140;28;20806;-66
2021/04/23 08:17:58;;;;;;;8.50;5.40;;;13.80;47.90;;;;;;5096337;28;20513;-66
2021/04/23 08:20:25;;;;;;;11.10;6.00;;;13.90;47.70;;;;;;5095962;28;20938;-66
2021/04/23 08:22:51;;;;;;;12.57;6.90;;;13.90;46.90;;;;;;5095909;28;20942;-66
2021/04/23 08:25:19;;;;;;;11.10;7.07;;;13.90;46.80;;;;;;5096321;28;20468;-66
2021/04/23 08:27:45;;;;;;;9.10;6.53;;;13.90;47.50;;;;;;5095819;28;20819;-66
2021/04/23 08:30:13;;;;;;;10.07;7.30;;;14.10;47.80;;;;;;5096133;28;20443;-67
2021/04/23 08:32:39;;;;;;;9.60;6.67;;;14.30;47.30;;;;;;5096644;28;20443;-66
2021/04/23 08:35:09;;;;;;;9.70;6.10;;;14.60;46.80;;;;;;5096100;28;20805;-66
2021/04/23 08:37:36;;;;;;;11.83;5.90;;;14.90;46.10;;;;;;5095762;28;20464;-66
2021/04/23 08:40:05;;;;;;;13.90;7.73;;;15.10;45.20;;;;;;5095956;28;20468;-66
2021/04/23 08:42:32;;;;;;;9.53;5.87;;;15.40;43.90;;;;;;5095966;28;20455;-66
2021/04/23 08:44:58;;;;;;;8.37;5.60;;;15.50;43.40;;;;;;5095961;28;20524;-66
2021/04/23 08:47:25;;;;;;;10.40;5.93;;;15.70;44.10;;;;;;5095544;28;20468;-66
2021/04/23 08:49:56;;;;;;;8.70;6.40;;;15.80;42.70;;;;;;5096357;28;20432;-66
2021/04/23 08:52:25;;;;;;;9.70;6.30;;;15.90;42.40;;;;;;5095969;28;20424;-66
2021/04/23 08:54:51;;;;;;;12.80;6.57;;;16.10;42.60;;;;;;5095373;28;20427;-66
2021/04/23 08:57:17;;;;;;;7.80;6.00;;;16.30;41.90;;;;;;5095458;28;20479;-66
2021/04/23 08:59:44;;;;;;;14.10;7.37;;;16.50;42.50;;;;;;5095687;28;20432;-66
2021/04/23 09:02:10;;;;;;;11.17;6.63;;;16.70;41.90;;;;;;5095348;28;20795;-67
2021/04/23 09:04:36;;;;;;;11.13;7.10;;;17.00;41.40;;;;;;5095832;28;20844;-67
2021/04/23 09:07:04;;;;;;;10.90;6.53;;;17.10;40.40;;;;;;5095412;28;20498;-66
2021/04/23 09:09:36;;;;;;;7.03;5.83;;;17.20;39.50;;;;;;5095796;28;20436;-66
2021/04/23 09:12:19;;;;;;;9.40;6.60;;;17.40;39.90;;;;;;5095325;28;20432;-66
2021/04/23 09:14:46;;;;;;;10.50;6.30;;;17.50;37.10;;;;;;5095008;28;20439;-66
2021/04/23 09:17:18;;;;;;;9.33;5.90;;;17.50;37.80;;;;;;5095460;28;20552;-67
2021/04/23 09:19:44;;;;;;;6.47;5.50;;;17.60;38.50;;;;;;5095206;28;20443;-67
2021/04/23 09:22:22;;;;;;;9.53;5.77;;;17.80;38.50;;;;;;5095220;28;20436;-67
2021/04/23 09:24:57;;;;;;;10.33;5.60;;;18.00;36.60;;;;;;5094756;28;20435;-66
2021/04/23 09:27:25;;;;;;;8.33;5.47;;;18.20;37.30;;;;;;5094577;28;20467;-66
2021/04/23 09:29:55;;;;;;;9.27;5.23;;;18.40;37.30;;;;;;5094927;28;20444;-66
2021/04/23 09:32:23;;;;;;;10.57;5.37;;;18.60;36.70;;;;;;5094871;28;20451;-66
2021/04/23 09:34:51;;;;;;;6.90;5.97;;;18.70;36.70;;;;;;5094870;28;20424;-67
2021/04/23 09:37:18;;;;;;;8.77;5.37;;;18.90;36.80;;;;;;5094705;28;20869;-67
2021/04/23 09:39:46;;;;;;;8.30;5.37;;;19.20;36.60;;;;;;5094822;28;20485;-67
2021/04/23 09:42:15;;;;;;;9.27;5.20;;;19.50;36.30;;;;;;5094732;28;20428;-67
2021/04/23 09:44:43;;;;;;;10.30;5.80;;;19.80;35.20;;;;;;5094332;28;20444;-67
2021/04/23 09:47:13;;;;;;;11.77;5.77;;;20.10;35.00;;;;;;5094583;28;20563;-67
2021/04/23 09:49:40;;;;;;;11.53;5.60;;;20.30;34.10;;;;;;5094380;28;20433;-67
2021/04/23 09:52:08;;;;;;;10.17;5.43;;;20.60;34.00;;;;;;5094767;28;20439;-67
2021/04/23 09:54:35;;;;;;;14.30;5.60;;;20.90;33.70;;;;;;5094533;28;20477;-67
2021/04/23 09:57:11;;;;;;;8.33;4.70;;;21.10;32.20;;;;;;5094038;28;20456;-67
2021/04/23 09:59:47;;;;;;;7.33;5.00;;;20.80;29.40;;;;;;5095323;28;20432;-67
2021/04/23 10:02:16;;;;;;;8.30;5.13;;;20.80;30.70;;;;;;5094422;28;20451;-67
2021/04/23 10:04:42;;;;;;;8.73;5.57;;;20.70;32.60;;;;;;5094300;28;20448;-67
2021/04/23 10:07:19;;;;;;;5.83;4.20;;;20.70;32.30;;;;;;5094212;28;20484;-67
2021/04/23 10:10:00;;;;;;;11.23;5.10;;;20.90;31.90;;;;;;5093976;28;20428;-67
2021/04/23 10:12:32;;;;;;;6.63;4.80;;;21.40;32.60;;;;;;5094000;28;20885;-67
2021/04/23 10:15:00;;;;;;;5.90;4.70;;;21.90;30.70;;;;;;5093919;28;20436;-67
2021/04/23 10:17:27;;;;;;;9.80;5.07;;;22.20;28.80;;;;;;5094074;28;20459;-67
2021/04/23 10:19:54;;;;;;;8.97;5.90;;;22.00;27.80;;;;;;5093753;28;20821;-68
2021/04/23 10:22:21;;;;;;;8.63;5.20;;;21.70;28.60;;;;;;5094154;28;20443;-67
2021/04/23 10:24:49;;;;;;;8.97;5.87;;;21.80;28.90;;;;;;5094175;28;20439;-67
2021/04/23 10:27:16;;;;;;;7.53;6.20;;;21.90;28.40;;;;;;5093922;28;20479;-67
2021/04/23 10:29:44;;;;;;;9.70;6.57;;;21.70;28.90;;;;;;5095041;28;20424;-67
2021/04/23 10:32:12;;;;;;;9.27;5.70;;;22.00;30.00;;;;;;5094598;28;20439;-67
2021/04/23 10:34:38;;;;;;;7.70;5.60;;;22.40;28.60;;;;;;5093928;28;20448;-67
2021/04/23 10:37:05;;;;;;;13.67;6.53;;;22.50;27.50;;;;;;5093381;28;20483;-67
2021/04/23 10:39:35;;;;;;;8.47;5.17;;;22.70;28.00;;;;;;5093460;28;20451;-67
2021/04/23 10:42:02;;;;;;;9.40;6.10;;;23.40;28.50;;;;;;5093739;28;20474;-67
2021/04/23 10:44:58;;;;;;;8.77;6.13;;;24.10;27.70;;;;;;5093747;28;20440;-67
2021/04/23 10:47:32;;;;;;;9.23;6.20;;;24.50;26.10;;;;;;5093572;28;20456;-67
2021/04/23 10:50:10;;;;;;;7.70;5.70;;;24.90;26.00;;;;;;5093625;28;20432;-67
2021/04/23 10:52:56;;;;;;;5.83;5.20;;;25.40;24.90;;;;;;5094305;28;20446;-67
2021/04/23 10:55:39;;;;;;;8.30;6.03;;;24.90;25.50;;;;;;5093266;28;20460;-67
2021/04/23 10:58:06;;;;;;;7.43;5.97;;;25.60;25.20;;;;;;5093514;28;20565;-67
2021/04/23 11:00:35;;;;;;;8.70;6.07;;;26.50;24.50;;;;;;5093537;28;20447;-67
2021/04/23 11:03:28;;;;;;;7.13;5.67;;;27.20;23.30;;;;;;5093780;28;20469;-67
2021/04/23 11:05:57;;;;;;;8.50;5.00;;;27.60;22.90;;;;;;5093476;28;20464;-68
2021/04/23 11:08:24;;;;;;;9.70;5.17;;;28.00;23.50;;;;;;5093460;28;20474;-67
2021/04/23 11:11:13;;;;;;;8.93;5.13;;;28.70;22.70;;;;;;5093463;28;20444;-68
2021/04/23 11:13:41;;;;;;;9.30;4.80;;;29.40;21.60;;;;;;5093320;28;20963;-69
2021/04/23 11:16:31;;;;;;;9.33;5.83;;;29.80;19.90;;;;;;5093480;28;20508;-71
2021/04/23 11:19:14;;;;;;;8.40;5.90;;;30.20;19.20;;;;;;5093674;28;20477;-71
2021/04/23 11:21:40;;;;;;;7.30;5.40;;;30.10;18.60;;;;;;5080518;28;20817;-71
2021/04/23 11:24:12;;;;;;;6.10;5.50;;;30.00;19.80;;;;;;5093505;28;20447;-71
2021/04/23 11:27:11;;;;;;;9.50;6.20;;;29.70;19.50;;;;;;5093354;28;20499;-72
2021/04/23 11:29:40;;;;;;;7.80;5.97;;;29.10;20.00;;;;;;5090593;28;20519;-72
2021/04/23 11:32:15;;;;;;;10.30;6.30;;;28.50;21.40;;;;;;5093505;28;20516;-72
2021/04/23 11:34:44;;;;;;;9.97;5.50;;;29.00;21.20;;;;;;5093196;28;20434;-72
2021/04/23 11:37:13;;;;;;;6.70;5.70;;;29.70;20.60;;;;;;5093186;28;20462;-71
2021/04/23 11:39:43;;;;;;;10.50;6.30;;;30.50;20.30;;;;;;5093461;28;20428;-71
2021/04/23 11:42:21;;;;;;;7.97;6.00;;;31.20;18.30;;;;;;5092867;28;20933;-71
2021/04/23 11:44:56;;;;;;;8.57;5.47;;;31.60;18.20;;;;;;5093101;28;20521;-71
2021/04/23 11:47:34;;;;;;;7.10;6.33;;;31.60;19.20;;;;;;5092923;28;20478;-72
2021/04/23 11:50:04;;;;;;;12.33;5.83;;;31.90;17.70;;;;;;5095643;28;20489;-71
2021/04/23 11:52:31;;;;;;;6.67;5.50;;;31.70;17.40;;;;;;5097562;28;20451;-71
2021/04/23 11:54:58;;;;;;;10.53;5.60;;;31.90;18.40;;;;;;5096748;28;20443;-71
2021/04/23 11:57:28;;;;;;;7.50;5.47;;;32.40;19.00;;;;;;5096728;28;20474;-72
2021/04/23 12:00:00;;;;;;;7.27;4.60;;;33.00;17.50;;;;;;5096426;28;20925;-72
2021/04/23 12:02:54;;;;;;;6.23;5.07;;;33.60;17.70;;;;;;5096642;28;20924;-72
2021/04/23 12:05:27;;;;;;;6.53;4.97;;;34.10;16.80;;;;;;5096562;28;20467;-71
2021/04/23 12:07:54;;;;;;;6.00;4.87;;;34.70;17.30;;;;;;5096556;28;20496;-72
2021/04/23 12:10:22;;;;;;;7.53;5.60;;;35.20;16.90;;;;;;5096579;28;20428;-71
2021/04/23 12:12:49;;;;;;;9.20;5.10;;;35.70;16.40;;;;;;5096467;28;20442;-71
2021/04/23 12:15:30;;;;;;;5.47;4.23;;;36.10;14.10;;;;;;5096724;28;20427;-71
2021/04/23 12:17:57;;;;;;;7.83;5.00;;;36.30;15.30;;;;;;5096369;28;20515;-72
2021/04/23 12:20:26;;;;;;;6.93;5.20;;;36.60;15.20;;;;;;5096385;28;20235;-72
2021/04/23 12:22:53;;;;;;;5.77;5.20;;;37.10;14.20;;;;;;5095984;28;20601;-72
2021/04/23 12:25:24;;;;;;;6.53;4.90;;;37.30;13.60;;;;;;5096223;28;20275;-72
2021/04/23 12:27:50;;;;;;;7.65;4.50;;;37.40;13.50;;;;;;5096273;28;20316;-72
2021/04/23 12:30:32;;;;;;;6.88;5.35;;;37.60;14.70;;;;;;5095987;28;20647;-72
2021/04/23 12:32:59;;;;;;;9.80;5.15;;;38.00;14.30;;;;;;5094129;28;20201;-72
2021/04/23 12:35:38;;;;;;;7.00;4.97;;;37.90;13.00;;;;;;5096130;28;20186;-72
2021/04/23 12:38:06;;;;;;;5.10;4.40;;;37.80;14.00;;;;;;5095972;28;20220;-72
2021/04/23 12:40:36;;;;;;;11.35;4.70;;;38.00;13.50;;;;;;5095989;28;20205;-72
2021/04/23 12:43:19;;;;;;;6.10;4.97;;;37.80;12.90;;;;;;5095897;28;20201;-72
2021/04/23 12:45:48;;;;;;;7.63;4.53;;;37.30;12.10;;;;;;5095774;28;20225;-71
2021/04/23 12:48:15;;;;;;;6.80;4.70;;;36.70;13.30;;;;;;5095400;28;20729;-71
2021/04/23 12:50:44;;;;;;;8.43;5.50;;;35.50;14.00;;;;;;5095652;28;20439;-71
2021/04/23 12:53:11;;;;;;;7.60;4.87;;;34.90;14.80;;;;;;5095637;28;20474;-71
2021/04/23 12:55:39;;;;;;;7.97;4.87;;;34.80;16.10;;;;;;5095419;28;20451;-71
2021/04/23 12:58:06;;;;;;;8.53;4.13;;;35.40;15.80;;;;;;5095314;28;20478;-71
2021/04/23 13:00:34;;;;;;;7.00;4.13;;;36.10;14.70;;;;;;5094682;28;20452;-72
2021/04/23 13:03:01;;;;;;;7.30;4.80;;;36.60;14.00;;;;;;5095451;28;20455;-71
2021/04/23 13:05:28;;;;;;;6.20;3.90;;;37.10;14.10;;;;;;5094937;28;20205;-71
2021/04/23 13:07:57;;;;;;;7.03;4.30;;;37.70;13.50;;;;;;5095508;28;20221;-71
2021/04/23 13:10:26;;;;;;;6.20;3.47;;;38.20;13.10;;;;;;5095723;28;20181;-72
2021/04/23 13:13:02;;;;;;;6.72;3.83;;;38.60;13.60;;;;;;5095624;28;20189;-72
2021/04/23 13:15:33;;;;;;;9.50;3.83;;;39.10;12.80;;;;;;5095276;28;20196;-72
2021/04/23 13:18:01;;;;;;;7.25;3.60;;;39.50;12.90;;;;;;5095257;28;20221;-72
2021/04/23 13:20:30;;;;;;;9.15;4.40;;;39.90;12.40;;;;;;5094877;28;20295;-72
2021/04/23 13:22:59;;;;;;;5.68;4.30;;;39.80;10.90;;;;;;5095080;28;20200;-72
2021/04/23 13:25:29;;;;;;;7.32;4.13;;;39.40;10.90;;;;;;5095058;28;20186;-72
2021/04/23 13:28:13;;;;;;;5.68;3.90;;;39.40;12.40;;;;;;5094976;28;20662;-72
2021/04/23 13:30:42;;;;;;;3.72;2.80;;;39.60;12.20;;;;;;5095112;28;20189;-72